Jeppesen Maersk — OWTW2 — position and weather

sailwx.info

Track history (hours):
 
Tides and Currents Weather Stations Pressure Air Temp Water Temp Dewpoint Dewpoint Depression Visibility Wind Speed Wind Dir Waves Ship Positions

Jeppesen Maersk

Last reported at 2017-Aug-15 23:53 UTC. Time now 2017-Aug-18 14:33 UTC.
Position N 22°34' E 114°16'.

Type: Ship (hazmat cat A). MMSI: 219953000.

Date/timePositionNaut miles runAvg speedWind from/ knotsBaromVisibWave heightAir tempDewpointWater temp
2017-Aug-15 23:53N 22°34' E 114°16'0 0.0
2017-Aug-15 23:23N 22°34' E 114°16'0 0.0
2017-Aug-15 22:11N 22°34' E 114°16'0 0.0
2017-Aug-15 21:17N 22°34' E 114°16'0 0.0
2017-Aug-15 20:53N 22°34' E 114°16'0 0.0
2017-Aug-15 20:29N 22°34' E 114°16'0 0.0
2017-Aug-15 19:59N 22°34' E 114°16'0 0.0
2017-Aug-15 18:53N 22°34' E 114°16'0 0.0
2017-Aug-15 18:17N 22°34' E 114°16'0 0.0
2017-Aug-15 17:47N 22°34' E 114°16'0 0.0
2017-Aug-15 16:17N 22°34' E 114°16'  
2017-Aug-08 17:29N 01°15' E 104°06'816.9
2017-Aug-08 16:59N 01°14' E 103°58'816.0
2017-Aug-08 16:30N 01°11' E 103°51'4 7.8
2017-Aug-08 16:01N 01°14' E 103°47'4 8.0
2017-Aug-08 15:30N 01°17' E 103°46'1 1.0
2017-Aug-08 14:59N 01°17' E 103°46'0 0.0
2017-Aug-08 14:29N 01°17' E 103°46'0 0.0
2017-Aug-08 13:59N 01°17' E 103°46'0 0.0
2017-Aug-08 13:29N 01°17' E 103°46'0 0.0
2017-Aug-08 12:59N 01°17' E 103°46'0 0.0
2017-Aug-08 12:26N 01°17' E 103°46'0 0.0
2017-Aug-08 11:59N 01°17' E 103°46'0 0.0
2017-Aug-08 11:29N 01°17' E 103°46'0 0.0
2017-Aug-08 10:59N 01°17' E 103°46'0 0.0
2017-Aug-08 10:29N 01°17' E 103°46'0 0.0
2017-Aug-08 09:59N 01°17' E 103°46'0 0.0
2017-Aug-08 09:29N 01°17' E 103°46'0 0.0
2017-Aug-08 08:59N 01°17' E 103°46'0 0.0
2017-Aug-08 08:29N 01°17' E 103°46'0 0.0
2017-Aug-08 07:59N 01°17' E 103°46'0 0.0
2017-Aug-08 07:29N 01°17' E 103°46'0 0.0
2017-Aug-08 06:59N 01°17' E 103°46'0 0.0
2017-Aug-08 06:29N 01°17' E 103°46'0 0.0
2017-Aug-08 05:59N 01°17' E 103°46'0 0.0
2017-Aug-08 05:29N 01°17' E 103°46'0 0.0
2017-Aug-08 04:59N 01°17' E 103°46'0 0.0
2017-Aug-08 04:29N 01°17' E 103°46'0 0.0
2017-Aug-08 03:59N 01°17' E 103°46'0 0.0
2017-Aug-08 03:29N 01°17' E 103°46'0 0.0
2017-Aug-08 02:59N 01°17' E 103°46'0 0.0
2017-Aug-08 02:29N 01°17' E 103°46'0 0.0
2017-Aug-08 01:59N 01°17' E 103°46'0 0.0
2017-Aug-08 01:29N 01°17' E 103°46'0 0.0
2017-Aug-08 00:59N 01°17' E 103°46'0 0.0
2017-Aug-08 00:29N 01°17' E 103°46'0 0.1
2017-Aug-08 00:00N 01°17' E 103°46'1 1.9
2017-Aug-07 23:30N 01°17' E 103°45'2 4.6
2017-Aug-07 23:01N 01°15' E 103°45'611.6
2017-Aug-07 22:30N 01°12' E 103°40'5 9.7
2017-Aug-07 22:00N 01°13' E 103°35'3 5.7
2017-Aug-07 21:30N 01°14' E 103°33'2 3.0
2017-Aug-07 21:00N 01°15' E 103°32'5 9.3
2017-Aug-07 20:30N 01°19' E 103°33'1 1.8
2017-Aug-07 19:57N 01°20' E 103°33'0 0.0
2017-Aug-07 18:42N 01°20' E 103°33'0 0.0
2017-Aug-07 18:30N 01°20' E 103°33'0 0.0
2017-Aug-07 17:57N 01°20' E 103°33'0 0.0
2017-Aug-07 17:24N 01°20' E 103°33'0 0.0
2017-Aug-07 16:45N 01°20' E 103°33'0 0.0
2017-Aug-07 16:27N 01°20' E 103°33'0 0.0
2017-Aug-07 15:57N 01°20' E 103°33'0 0.0
2017-Aug-07 15:30N 01°20' E 103°33'0 0.0
2017-Aug-07 14:54N 01°20' E 103°33'0 0.0
2017-Aug-07 14:27N 01°20' E 103°33'0 0.0
2017-Aug-07 13:57N 01°20' E 103°33'0 0.0
2017-Aug-07 13:24N 01°20' E 103°33'0 0.0
2017-Aug-07 12:42N 01°20' E 103°33'0 0.0
2017-Aug-07 12:24N 01°20' E 103°33'0 0.0
2017-Aug-07 11:57N 01°20' E 103°33'0 0.0
2017-Aug-07 11:30N 01°20' E 103°33'0 0.0
2017-Aug-07 10:45N 01°20' E 103°33'0 0.0
2017-Aug-07 10:27N 01°20' E 103°33'0 0.0
2017-Aug-07 09:57N 01°20' E 103°33'0 0.0
2017-Aug-07 09:24N 01°20' E 103°33'0 0.0
2017-Aug-07 08:45N 01°20' E 103°33'0 0.0
2017-Aug-07 08:27N 01°20' E 103°33'0 0.0
2017-Aug-07 07:57N 01°20' E 103°33'0 0.0
2017-Aug-07 07:24N 01°20' E 103°33'0 0.0
2017-Aug-07 06:57N 01°20' E 103°33'0 0.0
2017-Aug-07 06:27N 01°20' E 103°33'0 0.0
2017-Aug-07 05:54N 01°20' E 103°33'0 0.0
2017-Aug-07 05:24N 01°20' E 103°33'0 0.0
2017-Aug-07 04:54N 01°20' E 103°33'0 0.0
2017-Aug-07 03:09N 01°20' E 103°33'0 0.0
2017-Aug-07 02:45N 01°20' E 103°33'0 0.0
2017-Aug-07 02:30N 01°20' E 103°33'0 0.0
2017-Aug-07 01:57N 01°20' E 103°33'0 0.0
2017-Aug-07 01:30N 01°20' E 103°33'0 0.0
2017-Aug-07 00:54N 01°20' E 103°33'0 0.0
2017-Aug-07 00:27N 01°20' E 103°33'0 0.0
2017-Aug-06 23:57N 01°20' E 103°33'0 0.0
2017-Aug-06 23:21N 01°20' E 103°33'0 0.0
2017-Aug-06 23:00N 01°20' E 103°33'1 1.8
2017-Aug-06 22:30N 01°20' E 103°33'5 9.3
2017-Aug-06 22:00N 01°15' E 103°32'2 4.3
2017-Aug-06 21:30N 01°13' E 103°33'4 8.3
2017-Aug-06 21:00N 01°12' E 103°37'510.7
2017-Aug-06 20:30N 01°10' E 103°42'5 9.6
2017-Aug-06 20:00N 01°10' E 103°47'510.1
2017-Aug-06 19:30N 01°12' E 103°51'510.6
2017-Aug-06 19:00N 01°14' E 103°56'611.3
2017-Aug-06 18:29N 01°16' E 104°02'511.3
2017-Aug-06 18:00N 01°17' E 104°07'711.2
2017-Aug-06 17:25N 01°18' E 104°13'511.3
2017-Aug-06 16:59N 01°19' E 104°18'611.5
2017-Aug-06 16:29N 01°22' E 104°23'  
Track history (hours):
 
Tides and Currents Weather Stations Pressure Air Temp Water Temp Dewpoint Dewpoint Depression Visibility Wind Speed Wind Dir Waves Ship Positions

Jeppesen Maersk

Last reported at 2017-Aug-15 23:53 UTC. Time now 2017-Aug-18 14:33 UTC.
Position N 22°34' E 114°16'.

Type: Ship (hazmat cat A). MMSI: 219953000.

Date/timePositionNaut miles runAvg speedWind from/ knotsBaromVisibWave heightAir tempDewpointWater temp
2017-Aug-15 23:53N 22°34' E 114°16'0 0.0
2017-Aug-15 23:23N 22°34' E 114°16'0 0.0
2017-Aug-15 22:11N 22°34' E 114°16'0 0.0
2017-Aug-15 21:17N 22°34' E 114°16'0 0.0
2017-Aug-15 20:53N 22°34' E 114°16'0 0.0
2017-Aug-15 20:29N 22°34' E 114°16'0 0.0
2017-Aug-15 19:59N 22°34' E 114°16'0 0.0
2017-Aug-15 18:53N 22°34' E 114°16'0 0.0
2017-Aug-15 18:17N 22°34' E 114°16'0 0.0
2017-Aug-15 17:47N 22°34' E 114°16'0 0.0
2017-Aug-15 16:17N 22°34' E 114°16'  
2017-Aug-08 17:29N 01°15' E 104°06'816.9
2017-Aug-08 16:59N 01°14' E 103°58'816.0
2017-Aug-08 16:30N 01°11' E 103°51'4 7.8
2017-Aug-08 16:01N 01°14' E 103°47'4 8.0
2017-Aug-08 15:30N 01°17' E 103°46'1 1.0
2017-Aug-08 14:59N 01°17' E 103°46'0 0.0
2017-Aug-08 14:29N 01°17' E 103°46'0 0.0
2017-Aug-08 13:59N 01°17' E 103°46'0 0.0
2017-Aug-08 13:29N 01°17' E 103°46'0 0.0
2017-Aug-08 12:59N 01°17' E 103°46'0 0.0
2017-Aug-08 12:26N 01°17' E 103°46'0 0.0
2017-Aug-08 11:59N 01°17' E 103°46'0 0.0
2017-Aug-08 11:29N 01°17' E 103°46'0 0.0
2017-Aug-08 10:59N 01°17' E 103°46'0 0.0
2017-Aug-08 10:29N 01°17' E 103°46'0 0.0
2017-Aug-08 09:59N 01°17' E 103°46'0 0.0
2017-Aug-08 09:29N 01°17' E 103°46'0 0.0
2017-Aug-08 08:59N 01°17' E 103°46'0 0.0
2017-Aug-08 08:29N 01°17' E 103°46'0 0.0
2017-Aug-08 07:59N 01°17' E 103°46'0 0.0
2017-Aug-08 07:29N 01°17' E 103°46'0 0.0
2017-Aug-08 06:59N 01°17' E 103°46'0 0.0
2017-Aug-08 06:29N 01°17' E 103°46'0 0.0
2017-Aug-08 05:59N 01°17' E 103°46'0 0.0
2017-Aug-08 05:29N 01°17' E 103°46'0 0.0
2017-Aug-08 04:59N 01°17' E 103°46'0 0.0
2017-Aug-08 04:29N 01°17' E 103°46'0 0.0
2017-Aug-08 03:59N 01°17' E 103°46'0 0.0
2017-Aug-08 03:29N 01°17' E 103°46'0 0.0
2017-Aug-08 02:59N 01°17' E 103°46'0 0.0
2017-Aug-08 02:29N 01°17' E 103°46'0 0.0
2017-Aug-08 01:59N 01°17' E 103°46'0 0.0
2017-Aug-08 01:29N 01°17' E 103°46'0 0.0
2017-Aug-08 00:59N 01°17' E 103°46'0 0.0
2017-Aug-08 00:29N 01°17' E 103°46'0 0.1
2017-Aug-08 00:00N 01°17' E 103°46'1 1.9
2017-Aug-07 23:30N 01°17' E 103°45'2 4.6
2017-Aug-07 23:01N 01°15' E 103°45'611.6
2017-Aug-07 22:30N 01°12' E 103°40'5 9.7
2017-Aug-07 22:00N 01°13' E 103°35'3 5.7
2017-Aug-07 21:30N 01°14' E 103°33'2 3.0
2017-Aug-07 21:00N 01°15' E 103°32'5 9.3
2017-Aug-07 20:30N 01°19' E 103°33'1 1.8
2017-Aug-07 19:57N 01°20' E 103°33'0 0.0
2017-Aug-07 18:42N 01°20' E 103°33'0 0.0
2017-Aug-07 18:30N 01°20' E 103°33'0 0.0
2017-Aug-07 17:57N 01°20' E 103°33'0 0.0
2017-Aug-07 17:24N 01°20' E 103°33'0 0.0
2017-Aug-07 16:45N 01°20' E 103°33'0 0.0
2017-Aug-07 16:27N 01°20' E 103°33'0 0.0
2017-Aug-07 15:57N 01°20' E 103°33'0 0.0
2017-Aug-07 15:30N 01°20' E 103°33'0 0.0
2017-Aug-07 14:54N 01°20' E 103°33'0 0.0
2017-Aug-07 14:27N 01°20' E 103°33'0 0.0
2017-Aug-07 13:57N 01°20' E 103°33'0 0.0
2017-Aug-07 13:24N 01°20' E 103°33'0 0.0
2017-Aug-07 12:42N 01°20' E 103°33'0 0.0
2017-Aug-07 12:24N 01°20' E 103°33'0 0.0
2017-Aug-07 11:57N 01°20' E 103°33'0 0.0
2017-Aug-07 11:30N 01°20' E 103°33'0 0.0
2017-Aug-07 10:45N 01°20' E 103°33'0 0.0
2017-Aug-07 10:27N 01°20' E 103°33'0 0.0
2017-Aug-07 09:57N 01°20' E 103°33'0 0.0
2017-Aug-07 09:24N 01°20' E 103°33'0 0.0
2017-Aug-07 08:45N 01°20' E 103°33'0 0.0
2017-Aug-07 08:27N 01°20' E 103°33'0 0.0
2017-Aug-07 07:57N 01°20' E 103°33'0 0.0
2017-Aug-07 07:24N 01°20' E 103°33'0 0.0
2017-Aug-07 06:57N 01°20' E 103°33'0 0.0
2017-Aug-07 06:27N 01°20' E 103°33'0 0.0
2017-Aug-07 05:54N 01°20' E 103°33'0 0.0
2017-Aug-07 05:24N 01°20' E 103°33'0 0.0
2017-Aug-07 04:54N 01°20' E 103°33'0 0.0
2017-Aug-07 03:09N 01°20' E 103°33'0 0.0
2017-Aug-07 02:45N 01°20' E 103°33'0 0.0
2017-Aug-07 02:30N 01°20' E 103°33'0 0.0
2017-Aug-07 01:57N 01°20' E 103°33'0 0.0
2017-Aug-07 01:30N 01°20' E 103°33'0 0.0
2017-Aug-07 00:54N 01°20' E 103°33'0 0.0
2017-Aug-07 00:27N 01°20' E 103°33'0 0.0
2017-Aug-06 23:57N 01°20' E 103°33'0 0.0
2017-Aug-06 23:21N 01°20' E 103°33'0 0.0
2017-Aug-06 23:00N 01°20' E 103°33'1 1.8
2017-Aug-06 22:30N 01°20' E 103°33'5 9.3
2017-Aug-06 22:00N 01°15' E 103°32'2 4.3
2017-Aug-06 21:30N 01°13' E 103°33'4 8.3
2017-Aug-06 21:00N 01°12' E 103°37'510.7
2017-Aug-06 20:30N 01°10' E 103°42'5 9.6
2017-Aug-06 20:00N 01°10' E 103°47'510.1
2017-Aug-06 19:30N 01°12' E 103°51'510.6
2017-Aug-06 19:00N 01°14' E 103°56'611.3
2017-Aug-06 18:29N 01°16' E 104°02'511.3
2017-Aug-06 18:00N 01°17' E 104°07'711.2
2017-Aug-06 17:25N 01°18' E 104°13'511.3
2017-Aug-06 16:59N 01°19' E 104°18'611.5
2017-Aug-06 16:29N 01°22' E 104°23'  

Dump ship's entire track history